KCAR/CAR METAR and TAF weather

Enter ICAO airport designator
Station Type Date Time Source
KCAR METAR 2018/09/21 23:54 UTC NOAA

KCAR 212354Z AUTO 18021G32KT 10SM OVC011 12/09 A2977 RMK AO2 PK WND 18032/2353 LTG DSNT NE SLP088 60007 T01220094 10122 20111 58036


Station Type Date Time Source
KCAR Decoded METAR 2018/09/21 23:54 UTC NOAA

CARIBOU MUNICIPAL AIRPORT, ME, United States (KCAR) 46-52N 68-01W 191M
Sep 21, 2018 - 07:54 PM EDT / 2018.09.21 2354 UTC
Wind: from the S (180 degrees) at 24 MPH (21 KT) gusting to 37 MPH (32 KT):0
Visibility: 10 mile(s):0
Sky conditions: overcast
Weather: Lightning observed
Temperature: 54.0 F (12.2 C)
Dew Point: 48.9 F (9.4 C)
Relative Humidity: 82%
Pressure (altimeter): 29.77 in. Hg (1008 hPa)
Pressure tendency: 0.11 inches (3.6 hPa) lower than three hours ago
ob: KCAR 212354Z AUTO 18021G32KT 10SM OVC011 12/09 A2977 RMK AO2 PK WND 18032/2353 LTG DSNT NE SLP088 60007 T01220094 10122 20111 58036
cycle: 0

Station Type Date Time Source
KCAR TAF 2018/09/21 22:42 UTC NOAA

TAF
AMD KCAR 212139Z 2122/2218 18015G31KT P6SM VCSH OVC025 WS020/23050KT
FM220300 20021G40KT 4SM SHRA OVC009 WS020/23050KT
FM220500 21020G36KT P6SM VCSH OVC007
FM220900 25014G32KT P6SM VCSH BKN008
FM221100 30013G30KT P6SM SCT022


Example: see airport list